sensor_id;sensor_type;location;lat;lon;timestamp;P1;durP1;ratioP1;P2;durP2;ratioP2
72273;SDS011;60208;48.692;8.948;2022-08-25T00:01:00;3.00;;;2.80;;
72273;SDS011;60208;48.692;8.948;2022-08-25T00:03:25;3.35;;;3.05;;
72273;SDS011;60208;48.692;8.948;2022-08-25T00:05:50;4.50;;;2.90;;
72273;SDS011;60208;48.692;8.948;2022-08-25T00:08:16;5.53;;;3.50;;
72273;SDS011;60208;48.692;8.948;2022-08-25T00:10:41;3.88;;;2.83;;
72273;SDS011;60208;48.692;8.948;2022-08-25T00:13:06;4.95;;;3.05;;
72273;SDS011;60208;48.692;8.948;2022-08-25T00:15:32;3.83;;;3.33;;
72273;SDS011;60208;48.692;8.948;2022-08-25T00:17:58;3.38;;;3.00;;
72273;SDS011;60208;48.692;8.948;2022-08-25T00:20:25;3.58;;;3.15;;
72273;SDS011;60208;48.692;8.948;2022-08-25T00:22:52;3.27;;;2.93;;
72273;SDS011;60208;48.692;8.948;2022-08-25T00:25:17;4.47;;;3.38;;
72273;SDS011;60208;48.692;8.948;2022-08-25T00:27:43;3.28;;;2.97;;
72273;SDS011;60208;48.692;8.948;2022-08-25T00:30:09;4.45;;;3.50;;
72273;SDS011;60208;48.692;8.948;2022-08-25T00:32:34;4.10;;;3.20;;
72273;SDS011;60208;48.692;8.948;2022-08-25T00:35:00;4.60;;;3.30;;
72273;SDS011;60208;48.692;8.948;2022-08-25T00:37:26;3.38;;;3.05;;
72273;SDS011;60208;48.692;8.948;2022-08-25T00:39:52;4.55;;;3.47;;
72273;SDS011;60208;48.692;8.948;2022-08-25T00:42:21;4.03;;;3.20;;
72273;SDS011;60208;48.692;8.948;2022-08-25T00:44:47;3.60;;;3.15;;
72273;SDS011;60208;48.692;8.948;2022-08-25T00:47:12;4.68;;;3.35;;
72273;SDS011;60208;48.692;8.948;2022-08-25T00:49:39;3.38;;;3.00;;
72273;SDS011;60208;48.692;8.948;2022-08-25T00:52:11;3.75;;;3.40;;
72273;SDS011;60208;48.692;8.948;2022-08-25T00:54:40;3.50;;;3.20;;
72273;SDS011;60208;48.692;8.948;2022-08-25T00:57:09;3.30;;;3.00;;
72273;SDS011;60208;48.692;8.948;2022-08-25T00:59:37;3.70;;;3.40;;
72273;SDS011;60208;48.692;8.948;2022-08-25T01:02:03;3.75;;;3.45;;
72273;SDS011;60208;48.692;8.948;2022-08-25T01:04:31;3.55;;;3.25;;
72273;SDS011;60208;48.692;8.948;2022-08-25T01:06:56;3.97;;;3.20;;
72273;SDS011;60208;48.692;8.948;2022-08-25T01:09:22;3.40;;;3.10;;
72273;SDS011;60208;48.692;8.948;2022-08-25T01:11:48;3.67;;;3.38;;
72273;SDS011;60208;48.692;8.948;2022-08-25T01:14:15;3.63;;;3.33;;
72273;SDS011;60208;48.692;8.948;2022-08-25T01:16:42;3.65;;;3.35;;
72273;SDS011;60208;48.692;8.948;2022-08-25T01:19:08;3.80;;;3.45;;
72273;SDS011;60208;48.692;8.948;2022-08-25T01:21:47;3.55;;;3.25;;
72273;SDS011;60208;48.692;8.948;2022-08-25T01:27:03;4.05;;;3.50;;
72273;SDS011;60208;48.692;8.948;2022-08-25T01:29:30;4.47;;;3.63;;
72273;SDS011;60208;48.692;8.948;2022-08-25T01:31:57;3.47;;;3.17;;
72273;SDS011;60208;48.692;8.948;2022-08-25T01:34:26;3.72;;;3.40;;
72273;SDS011;60208;48.692;8.948;2022-08-25T01:36:53;4.43;;;3.60;;
72273;SDS011;60208;48.692;8.948;2022-08-25T01:39:19;3.55;;;3.25;;
72273;SDS011;60208;48.692;8.948;2022-08-25T01:44:29;3.67;;;3.38;;
72273;SDS011;60208;48.692;8.948;2022-08-25T01:46:56;3.90;;;3.50;;
72273;SDS011;60208;48.692;8.948;2022-08-25T01:49:21;4.45;;;3.42;;
72273;SDS011;60208;48.692;8.948;2022-08-25T01:51:48;5.15;;;3.50;;
72273;SDS011;60208;48.692;8.948;2022-08-25T01:54:16;3.78;;;3.47;;
72273;SDS011;60208;48.692;8.948;2022-08-25T01:56:41;3.92;;;3.30;;
72273;SDS011;60208;48.692;8.948;2022-08-25T01:59:07;3.95;;;3.33;;
72273;SDS011;60208;48.692;8.948;2022-08-25T02:01:33;3.55;;;3.25;;
72273;SDS011;60208;48.692;8.948;2022-08-25T02:03:58;4.50;;;3.42;;
72273;SDS011;60208;48.692;8.948;2022-08-25T02:06:25;4.00;;;3.60;;
72273;SDS011;60208;48.692;8.948;2022-08-25T02:08:58;3.72;;;3.42;;
72273;SDS011;60208;48.692;8.948;2022-08-25T02:11:29;4.15;;;3.75;;
72273;SDS011;60208;48.692;8.948;2022-08-25T02:13:56;3.72;;;3.40;;
72273;SDS011;60208;48.692;8.948;2022-08-25T02:16:24;3.38;;;3.08;;
72273;SDS011;60208;48.692;8.948;2022-08-25T02:18:53;4.03;;;3.63;;
72273;SDS011;60208;48.692;8.948;2022-08-25T02:21:19;3.65;;;3.33;;
72273;SDS011;60208;48.692;8.948;2022-08-25T02:23:44;3.60;;;3.30;;
72273;SDS011;60208;48.692;8.948;2022-08-25T02:26:10;5.55;;;3.47;;
72273;SDS011;60208;48.692;8.948;2022-08-25T02:28:36;4.13;;;3.55;;
72273;SDS011;60208;48.692;8.948;2022-08-25T02:31:02;4.10;;;3.67;;
72273;SDS011;60208;48.692;8.948;2022-08-25T02:33:29;4.10;;;3.70;;
72273;SDS011;60208;48.692;8.948;2022-08-25T02:36:01;3.53;;;3.22;;
72273;SDS011;60208;48.692;8.948;2022-08-25T02:38:27;4.50;;;3.67;;
72273;SDS011;60208;48.692;8.948;2022-08-25T02:40:56;4.00;;;3.70;;
72273;SDS011;60208;48.692;8.948;2022-08-25T02:43:23;3.80;;;3.40;;
72273;SDS011;60208;48.692;8.948;2022-08-25T02:45:49;4.32;;;3.60;;
72273;SDS011;60208;48.692;8.948;2022-08-25T02:48:15;3.92;;;3.35;;
72273;SDS011;60208;48.692;8.948;2022-08-25T02:50:44;3.85;;;3.45;;
72273;SDS011;60208;48.692;8.948;2022-08-25T02:53:11;4.20;;;3.63;;
72273;SDS011;60208;48.692;8.948;2022-08-25T02:55:36;4.43;;;3.45;;
72273;SDS011;60208;48.692;8.948;2022-08-25T02:58:01;8.57;;;3.90;;
72273;SDS011;60208;48.692;8.948;2022-08-25T03:00:27;3.97;;;3.67;;
72273;SDS011;60208;48.692;8.948;2022-08-25T03:02:52;4.20;;;3.80;;
72273;SDS011;60208;48.692;8.948;2022-08-25T03:05:17;5.32;;;3.25;;
72273;SDS011;60208;48.692;8.948;2022-08-25T03:07:43;3.75;;;3.45;;
72273;SDS011;60208;48.692;8.948;2022-08-25T03:10:11;3.70;;;3.40;;
72273;SDS011;60208;48.692;8.948;2022-08-25T03:12:38;4.47;;;3.60;;
72273;SDS011;60208;48.692;8.948;2022-08-25T03:15:06;4.20;;;3.53;;
72273;SDS011;60208;48.692;8.948;2022-08-25T03:17:33;4.93;;;3.90;;
72273;SDS011;60208;48.692;8.948;2022-08-25T03:19:58;4.65;;;3.70;;
72273;SDS011;60208;48.692;8.948;2022-08-25T03:22:23;4.65;;;3.80;;
72273;SDS011;60208;48.692;8.948;2022-08-25T03:24:49;4.43;;;4.03;;
72273;SDS011;60208;48.692;8.948;2022-08-25T03:27:14;3.90;;;3.60;;
72273;SDS011;60208;48.692;8.948;2022-08-25T03:29:40;3.92;;;3.53;;
72273;SDS011;60208;48.692;8.948;2022-08-25T03:32:07;4.38;;;3.97;;
72273;SDS011;60208;48.692;8.948;2022-08-25T03:34:32;4.38;;;3.90;;
72273;SDS011;60208;48.692;8.948;2022-08-25T03:36:58;4.88;;;3.70;;
72273;SDS011;60208;48.692;8.948;2022-08-25T03:39:24;4.00;;;3.70;;
72273;SDS011;60208;48.692;8.948;2022-08-25T03:41:51;4.65;;;4.07;;
72273;SDS011;60208;48.692;8.948;2022-08-25T03:44:18;4.22;;;3.80;;
72273;SDS011;60208;48.692;8.948;2022-08-25T03:46:48;5.22;;;4.10;;
72273;SDS011;60208;48.692;8.948;2022-08-25T03:49:16;5.20;;;4.00;;
72273;SDS011;60208;48.692;8.948;2022-08-25T03:51:45;4.50;;;4.10;;
72273;SDS011;60208;48.692;8.948;2022-08-25T03:54:13;4.10;;;3.70;;
72273;SDS011;60208;48.692;8.948;2022-08-25T03:56:39;4.22;;;3.83;;
72273;SDS011;60208;48.692;8.948;2022-08-25T03:59:05;4.78;;;4.28;;
72273;SDS011;60208;48.692;8.948;2022-08-25T04:01:33;4.90;;;4.40;;
72273;SDS011;60208;48.692;8.948;2022-08-25T04:04:00;4.65;;;4.22;;
72273;SDS011;60208;48.692;8.948;2022-08-25T04:06:25;5.22;;;4.10;;
72273;SDS011;60208;48.692;8.948;2022-08-25T04:08:51;5.20;;;4.20;;
72273;SDS011;60208;48.692;8.948;2022-08-25T04:11:18;4.90;;;4.50;;
72273;SDS011;60208;48.692;8.948;2022-08-25T04:13:44;4.70;;;4.30;;
72273;SDS011;60208;48.692;8.948;2022-08-25T04:16:12;5.57;;;4.43;;
72273;SDS011;60208;48.692;8.948;2022-08-25T04:18:39;4.90;;;4.40;;
72273;SDS011;60208;48.692;8.948;2022-08-25T04:21:06;4.72;;;4.15;;
72273;SDS011;60208;48.692;8.948;2022-08-25T04:23:36;5.30;;;4.10;;
72273;SDS011;60208;48.692;8.948;2022-08-25T04:26:17;5.15;;;4.38;;
72273;SDS011;60208;48.692;8.948;2022-08-25T04:28:55;5.40;;;4.78;;
72273;SDS011;60208;48.692;8.948;2022-08-25T04:31:21;4.65;;;4.20;;
72273;SDS011;60208;48.692;8.948;2022-08-25T04:33:46;6.50;;;4.25;;
72273;SDS011;60208;48.692;8.948;2022-08-25T04:36:13;4.40;;;3.90;;
72273;SDS011;60208;48.692;8.948;2022-08-25T04:38:40;10.48;;;4.20;;
72273;SDS011;60208;48.692;8.948;2022-08-25T04:41:07;5.32;;;3.95;;
72273;SDS011;60208;48.692;8.948;2022-08-25T04:43:34;5.80;;;4.65;;
72273;SDS011;60208;48.692;8.948;2022-08-25T04:46:04;6.30;;;4.13;;
72273;SDS011;60208;48.692;8.948;2022-08-25T04:48:33;5.25;;;4.75;;
72273;SDS011;60208;48.692;8.948;2022-08-25T04:51:03;5.07;;;4.55;;
72273;SDS011;60208;48.692;8.948;2022-08-25T04:53:29;5.82;;;4.65;;
72273;SDS011;60208;48.692;8.948;2022-08-25T04:55:56;5.95;;;4.75;;
72273;SDS011;60208;48.692;8.948;2022-08-25T04:58:22;4.82;;;4.43;;
72273;SDS011;60208;48.692;8.948;2022-08-25T05:00:47;5.72;;;4.47;;
72273;SDS011;60208;48.692;8.948;2022-08-25T05:03:12;4.43;;;4.03;;
72273;SDS011;60208;48.692;8.948;2022-08-25T05:05:38;5.05;;;4.55;;
72273;SDS011;60208;48.692;8.948;2022-08-25T05:08:04;4.95;;;4.45;;
72273;SDS011;60208;48.692;8.948;2022-08-25T05:10:30;7.65;;;4.70;;
72273;SDS011;60208;48.692;8.948;2022-08-25T05:12:56;6.13;;;4.05;;
72273;SDS011;60208;48.692;8.948;2022-08-25T05:15:21;4.57;;;4.13;;
72273;SDS011;60208;48.692;8.948;2022-08-25T05:18:05;4.55;;;4.13;;
72273;SDS011;60208;48.692;8.948;2022-08-25T05:20:31;4.80;;;4.30;;
72273;SDS011;60208;48.692;8.948;2022-08-25T05:22:56;5.40;;;4.10;;
72273;SDS011;60208;48.692;8.948;2022-08-25T05:25:23;4.40;;;4.00;;
72273;SDS011;60208;48.692;8.948;2022-08-25T05:27:48;5.35;;;4.28;;
72273;SDS011;60208;48.692;8.948;2022-08-25T05:30:14;4.35;;;3.90;;
72273;SDS011;60208;48.692;8.948;2022-08-25T05:32:39;6.10;;;4.30;;
72273;SDS011;60208;48.692;8.948;2022-08-25T05:35:05;4.47;;;3.97;;
72273;SDS011;60208;48.692;8.948;2022-08-25T05:37:31;4.82;;;4.32;;
72273;SDS011;60208;48.692;8.948;2022-08-25T05:39:57;4.00;;;3.65;;
72273;SDS011;60208;48.692;8.948;2022-08-25T05:42:22;4.82;;;4.13;;
72273;SDS011;60208;48.692;8.948;2022-08-25T05:44:48;4.68;;;3.88;;
72273;SDS011;60208;48.692;8.948;2022-08-25T05:47:14;4.72;;;4.03;;
72273;SDS011;60208;48.692;8.948;2022-08-25T05:49:39;5.95;;;4.50;;
72273;SDS011;60208;48.692;8.948;2022-08-25T05:52:05;7.28;;;4.53;;
72273;SDS011;60208;48.692;8.948;2022-08-25T05:54:30;7.13;;;3.92;;
72273;SDS011;60208;48.692;8.948;2022-08-25T05:56:56;6.28;;;4.20;;
72273;SDS011;60208;48.692;8.948;2022-08-25T05:59:22;5.53;;;4.07;;
72273;SDS011;60208;48.692;8.948;2022-08-25T06:01:48;4.78;;;4.22;;
72273;SDS011;60208;48.692;8.948;2022-08-25T06:04:31;5.25;;;4.40;;
72273;SDS011;60208;48.692;8.948;2022-08-25T06:06:57;4.88;;;4.40;;
72273;SDS011;60208;48.692;8.948;2022-08-25T06:09:22;5.93;;;4.43;;
72273;SDS011;60208;48.692;8.948;2022-08-25T06:11:48;5.10;;;4.07;;
72273;SDS011;60208;48.692;8.948;2022-08-25T06:14:14;4.95;;;4.45;;
72273;SDS011;60208;48.692;8.948;2022-08-25T06:16:39;5.32;;;4.38;;
72273;SDS011;60208;48.692;8.948;2022-08-25T06:19:06;6.32;;;4.93;;
72273;SDS011;60208;48.692;8.948;2022-08-25T06:21:32;5.00;;;4.55;;
72273;SDS011;60208;48.692;8.948;2022-08-25T06:23:57;6.28;;;4.80;;
72273;SDS011;60208;48.692;8.948;2022-08-25T06:26:23;5.45;;;4.95;;
72273;SDS011;60208;48.692;8.948;2022-08-25T06:28:51;5.80;;;4.45;;
72273;SDS011;60208;48.692;8.948;2022-08-25T06:31:18;5.28;;;4.78;;
72273;SDS011;60208;48.692;8.948;2022-08-25T06:33:44;7.70;;;5.90;;
72273;SDS011;60208;48.692;8.948;2022-08-25T06:36:09;7.18;;;5.25;;
72273;SDS011;60208;48.692;8.948;2022-08-25T06:38:35;7.10;;;5.60;;
72273;SDS011;60208;48.692;8.948;2022-08-25T06:41:01;7.30;;;5.68;;
72273;SDS011;60208;48.692;8.948;2022-08-25T06:43:28;6.22;;;5.28;;
72273;SDS011;60208;48.692;8.948;2022-08-25T06:45:53;8.38;;;5.00;;
72273;SDS011;60208;48.692;8.948;2022-08-25T06:48:18;7.50;;;6.15;;
72273;SDS011;60208;48.692;8.948;2022-08-25T06:50:44;8.65;;;6.40;;
72273;SDS011;60208;48.692;8.948;2022-08-25T06:53:09;6.88;;;6.18;;
72273;SDS011;60208;48.692;8.948;2022-08-25T06:55:35;7.85;;;6.80;;
72273;SDS011;60208;48.692;8.948;2022-08-25T06:58:00;10.73;;;6.60;;
72273;SDS011;60208;48.692;8.948;2022-08-25T07:00:27;8.45;;;6.57;;
72273;SDS011;60208;48.692;8.948;2022-08-25T07:02:53;8.88;;;6.55;;
72273;SDS011;60208;48.692;8.948;2022-08-25T07:05:19;6.72;;;5.97;;
72273;SDS011;60208;48.692;8.948;2022-08-25T07:07:44;8.43;;;6.15;;
72273;SDS011;60208;48.692;8.948;2022-08-25T07:10:10;8.25;;;5.97;;
72273;SDS011;60208;48.692;8.948;2022-08-25T07:12:37;9.32;;;5.80;;
72273;SDS011;60208;48.692;8.948;2022-08-25T07:15:02;9.05;;;6.10;;
72273;SDS011;60208;48.692;8.948;2022-08-25T07:17:28;7.45;;;6.03;;
72273;SDS011;60208;48.692;8.948;2022-08-25T07:19:54;10.93;;;6.13;;
72273;SDS011;60208;48.692;8.948;2022-08-25T07:22:19;9.20;;;6.25;;
72273;SDS011;60208;48.692;8.948;2022-08-25T07:24:44;8.40;;;6.30;;
72273;SDS011;60208;48.692;8.948;2022-08-25T07:27:10;8.32;;;6.10;;
72273;SDS011;60208;48.692;8.948;2022-08-25T07:29:35;7.82;;;6.22;;
72273;SDS011;60208;48.692;8.948;2022-08-25T07:32:02;10.27;;;6.30;;
72273;SDS011;60208;48.692;8.948;2022-08-25T07:34:28;10.13;;;6.00;;
72273;SDS011;60208;48.692;8.948;2022-08-25T07:37:13;10.27;;;6.80;;
72273;SDS011;60208;48.692;8.948;2022-08-25T07:39:38;9.38;;;6.43;;
72273;SDS011;60208;48.692;8.948;2022-08-25T07:42:04;8.63;;;6.13;;
72273;SDS011;60208;48.692;8.948;2022-08-25T07:44:29;7.63;;;6.07;;
72273;SDS011;60208;48.692;8.948;2022-08-25T07:46:55;7.45;;;5.80;;
72273;SDS011;60208;48.692;8.948;2022-08-25T07:49:21;13.77;;;7.20;;
72273;SDS011;60208;48.692;8.948;2022-08-25T07:51:47;8.88;;;5.10;;
72273;SDS011;60208;48.692;8.948;2022-08-25T07:54:12;6.03;;;5.15;;
72273;SDS011;60208;48.692;8.948;2022-08-25T07:56:39;10.65;;;4.95;;
72273;SDS011;60208;48.692;8.948;2022-08-25T07:59:07;5.60;;;4.95;;
72273;SDS011;60208;48.692;8.948;2022-08-25T08:01:32;4.97;;;4.35;;
72273;SDS011;60208;48.692;8.948;2022-08-25T08:03:58;6.18;;;4.88;;
72273;SDS011;60208;48.692;8.948;2022-08-25T08:06:23;4.90;;;4.40;;
72273;SDS011;60208;48.692;8.948;2022-08-25T08:08:49;6.45;;;4.60;;
72273;SDS011;60208;48.692;8.948;2022-08-25T08:11:23;4.65;;;4.05;;
72273;SDS011;60208;48.692;8.948;2022-08-25T08:13:53;4.88;;;4.40;;
72273;SDS011;60208;48.692;8.948;2022-08-25T08:16:19;7.53;;;5.15;;
72273;SDS011;60208;48.692;8.948;2022-08-25T08:18:46;8.45;;;4.45;;
72273;SDS011;60208;48.692;8.948;2022-08-25T08:21:12;5.30;;;4.80;;
72273;SDS011;60208;48.692;8.948;2022-08-25T08:23:41;5.97;;;4.22;;
72273;SDS011;60208;48.692;8.948;2022-08-25T08:26:06;5.35;;;4.45;;
72273;SDS011;60208;48.692;8.948;2022-08-25T08:28:31;4.93;;;4.30;;
72273;SDS011;60208;48.692;8.948;2022-08-25T08:30:57;4.88;;;4.20;;
72273;SDS011;60208;48.692;8.948;2022-08-25T08:33:23;5.65;;;4.30;;
72273;SDS011;60208;48.692;8.948;2022-08-25T08:35:54;4.75;;;4.05;;
72273;SDS011;60208;48.692;8.948;2022-08-25T08:38:21;5.00;;;4.50;;
72273;SDS011;60208;48.692;8.948;2022-08-25T08:43:42;7.07;;;4.28;;
72273;SDS011;60208;48.692;8.948;2022-08-25T08:46:08;4.40;;;4.00;;
72273;SDS011;60208;48.692;8.948;2022-08-25T08:48:39;6.05;;;4.55;;
72273;SDS011;60208;48.692;8.948;2022-08-25T08:51:22;6.68;;;4.35;;
72273;SDS011;60208;48.692;8.948;2022-08-25T08:53:54;10.65;;;4.38;;
72273;SDS011;60208;48.692;8.948;2022-08-25T08:56:31;6.18;;;4.63;;
72273;SDS011;60208;48.692;8.948;2022-08-25T08:59:15;6.40;;;4.75;;
72273;SDS011;60208;48.692;8.948;2022-08-25T09:04:14;4.70;;;4.30;;
72273;SDS011;60208;48.692;8.948;2022-08-25T09:06:45;5.82;;;4.13;;
72273;SDS011;60208;48.692;8.948;2022-08-25T09:09:13;4.55;;;4.13;;
72273;SDS011;60208;48.692;8.948;2022-08-25T09:30:22;5.10;;;4.00;;
72273;SDS011;60208;48.692;8.948;2022-08-25T09:32:49;4.50;;;3.75;;
72273;SDS011;60208;48.692;8.948;2022-08-25T09:35:28;4.85;;;4.00;;
72273;SDS011;60208;48.692;8.948;2022-08-25T09:37:57;6.97;;;4.25;;
72273;SDS011;60208;48.692;8.948;2022-08-25T09:40:28;4.20;;;3.80;;
72273;SDS011;60208;48.692;8.948;2022-08-25T09:42:56;4.00;;;3.60;;
72273;SDS011;60208;48.692;8.948;2022-08-25T09:45:40;5.55;;;3.88;;
72273;SDS011;60208;48.692;8.948;2022-08-25T09:48:22;5.20;;;4.30;;
72273;SDS011;60208;48.692;8.948;2022-08-25T09:50:53;6.13;;;3.67;;
72273;SDS011;60208;48.692;8.948;2022-08-25T09:53:23;4.82;;;3.50;;
72273;SDS011;60208;48.692;8.948;2022-08-25T09:55:53;4.25;;;3.85;;
72273;SDS011;60208;48.692;8.948;2022-08-25T09:58:23;4.75;;;4.25;;
72273;SDS011;60208;48.692;8.948;2022-08-25T10:01:07;4.40;;;3.38;;
72273;SDS011;60208;48.692;8.948;2022-08-25T10:06:22;6.83;;;4.10;;
72273;SDS011;60208;48.692;8.948;2022-08-25T10:11:34;3.97;;;3.30;;
72273;SDS011;60208;48.692;8.948;2022-08-25T10:14:19;4.70;;;3.35;;
72273;SDS011;60208;48.692;8.948;2022-08-25T10:16:45;5.20;;;3.20;;
72273;SDS011;60208;48.692;8.948;2022-08-25T10:21:38;3.50;;;3.20;;
72273;SDS011;60208;48.692;8.948;2022-08-25T10:24:05;9.23;;;3.28;;
72273;SDS011;60208;48.692;8.948;2022-08-25T10:29:19;3.78;;;2.60;;
72273;SDS011;60208;48.692;8.948;2022-08-25T10:31:52;2.92;;;2.50;;
72273;SDS011;60208;48.692;8.948;2022-08-25T10:40:24;3.83;;;3.20;;
72273;SDS011;60208;48.692;8.948;2022-08-25T10:43:09;4.05;;;2.92;;
72273;SDS011;60208;48.692;8.948;2022-08-25T10:45:46;2.72;;;2.53;;
72273;SDS011;60208;48.692;8.948;2022-08-25T10:51:22;3.10;;;2.90;;
72273;SDS011;60208;48.692;8.948;2022-08-25T10:53:54;3.42;;;2.65;;
72273;SDS011;60208;48.692;8.948;2022-08-25T10:56:25;3.17;;;2.58;;
72273;SDS011;60208;48.692;8.948;2022-08-25T10:59:03;2.67;;;2.42;;
72273;SDS011;60208;48.692;8.948;2022-08-25T11:07:26;2.50;;;2.30;;
72273;SDS011;60208;48.692;8.948;2022-08-25T11:09:56;2.60;;;2.35;;
72273;SDS011;60208;48.692;8.948;2022-08-25T11:12:44;2.40;;;2.08;;
72273;SDS011;60208;48.692;8.948;2022-08-25T11:15:27;2.63;;;2.35;;
72273;SDS011;60208;48.692;8.948;2022-08-25T11:17:57;2.45;;;2.10;;
72273;SDS011;60208;48.692;8.948;2022-08-25T11:20:26;2.63;;;2.13;;
72273;SDS011;60208;48.692;8.948;2022-08-25T11:25:36;2.58;;;2.20;;
72273;SDS011;60208;48.692;8.948;2022-08-25T11:28:12;2.92;;;1.80;;
72273;SDS011;60208;48.692;8.948;2022-08-25T11:30:50;2.35;;;2.15;;
72273;SDS011;60208;48.692;8.948;2022-08-25T11:33:16;2.20;;;1.92;;
72273;SDS011;60208;48.692;8.948;2022-08-25T11:35:46;5.30;;;2.28;;
72273;SDS011;60208;48.692;8.948;2022-08-25T11:41:10;2.30;;;2.10;;
72273;SDS011;60208;48.692;8.948;2022-08-25T11:46:34;2.33;;;2.10;;
72273;SDS011;60208;48.692;8.948;2022-08-25T11:55:15;2.63;;;2.30;;
72273;SDS011;60208;48.692;8.948;2022-08-25T11:57:42;1.90;;;1.80;;
72273;SDS011;60208;48.692;8.948;2022-08-25T12:03:07;2.63;;;1.92;;
72273;SDS011;60208;48.692;8.948;2022-08-25T12:08:51;2.90;;;2.20;;
72273;SDS011;60208;48.692;8.948;2022-08-25T12:29:56;2.17;;;2.08;;
72273;SDS011;60208;48.692;8.948;2022-08-25T12:32:45;2.78;;;2.58;;
72273;SDS011;60208;48.692;8.948;2022-08-25T12:38:00;2.63;;;2.42;;
72273;SDS011;60208;48.692;8.948;2022-08-25T12:43:39;3.30;;;2.30;;
72273;SDS011;60208;48.692;8.948;2022-08-25T12:59:48;2.20;;;2.08;;
72273;SDS011;60208;48.692;8.948;2022-08-25T13:02:24;2.10;;;1.88;;
72273;SDS011;60208;48.692;8.948;2022-08-25T13:15:25;1.93;;;1.83;;
72273;SDS011;60208;48.692;8.948;2022-08-25T13:17:53;2.92;;;2.17;;
72273;SDS011;60208;48.692;8.948;2022-08-25T13:20:23;2.47;;;2.17;;
72273;SDS011;60208;48.692;8.948;2022-08-25T13:22:50;2.10;;;1.90;;
72273;SDS011;60208;48.692;8.948;2022-08-25T13:25:18;1.88;;;1.70;;
72273;SDS011;60208;48.692;8.948;2022-08-25T13:27:55;1.70;;;1.50;;
72273;SDS011;60208;48.692;8.948;2022-08-25T13:30:24;1.80;;;1.65;;
72273;SDS011;60208;48.692;8.948;2022-08-25T13:32:53;1.95;;;1.80;;
72273;SDS011;60208;48.692;8.948;2022-08-25T13:35:22;2.13;;;1.88;;
72273;SDS011;60208;48.692;8.948;2022-08-25T13:37:48;2.08;;;1.70;;
72273;SDS011;60208;48.692;8.948;2022-08-25T13:40:14;1.65;;;1.48;;
72273;SDS011;60208;48.692;8.948;2022-08-25T13:42:47;2.00;;;1.70;;
72273;SDS011;60208;48.692;8.948;2022-08-25T13:45:14;3.47;;;2.00;;
72273;SDS011;60208;48.692;8.948;2022-08-25T13:47:43;3.45;;;1.88;;
72273;SDS011;60208;48.692;8.948;2022-08-25T13:53:06;2.45;;;2.00;;
72273;SDS011;60208;48.692;8.948;2022-08-25T13:55:35;3.25;;;2.15;;
72273;SDS011;60208;48.692;8.948;2022-08-25T13:58:05;2.40;;;2.05;;
72273;SDS011;60208;48.692;8.948;2022-08-25T14:01:24;2.80;;;2.10;;
72273;SDS011;60208;48.692;8.948;2022-08-25T14:03:29;2.08;;;1.88;;
72273;SDS011;60208;48.692;8.948;2022-08-25T14:06:30;1.90;;;1.80;;
72273;SDS011;60208;48.692;8.948;2022-08-25T14:11:32;5.30;;;2.10;;
72273;SDS011;60208;48.692;8.948;2022-08-25T14:14:06;2.67;;;1.77;;
72273;SDS011;60208;48.692;8.948;2022-08-25T14:16:37;1.98;;;1.70;;
72273;SDS011;60208;48.692;8.948;2022-08-25T14:19:04;2.25;;;1.92;;
72273;SDS011;60208;48.692;8.948;2022-08-25T14:21:30;4.50;;;2.05;;
72273;SDS011;60208;48.692;8.948;2022-08-25T14:23:57;1.40;;;1.30;;
72273;SDS011;60208;48.692;8.948;2022-08-25T14:26:23;6.28;;;2.10;;
72273;SDS011;60208;48.692;8.948;2022-08-25T14:28:49;14.15;;;2.50;;
72273;SDS011;60208;48.692;8.948;2022-08-25T14:31:28;4.35;;;1.80;;
72273;SDS011;60208;48.692;8.948;2022-08-25T14:34:00;6.93;;;1.85;;
72273;SDS011;60208;48.692;8.948;2022-08-25T14:36:28;3.47;;;1.67;;
72273;SDS011;60208;48.692;8.948;2022-08-25T14:38:55;1.42;;;1.30;;
72273;SDS011;60208;48.692;8.948;2022-08-25T14:41:21;3.55;;;1.60;;
72273;SDS011;60208;48.692;8.948;2022-08-25T14:43:48;2.65;;;1.70;;
72273;SDS011;60208;48.692;8.948;2022-08-25T14:46:18;1.52;;;1.38;;
72273;SDS011;60208;48.692;8.948;2022-08-25T14:51:11;1.90;;;1.60;;
72273;SDS011;60208;48.692;8.948;2022-08-25T14:53:37;2.50;;;1.50;;
72273;SDS011;60208;48.692;8.948;2022-08-25T14:56:03;2.78;;;1.42;;
72273;SDS011;60208;48.692;8.948;2022-08-25T14:58:28;1.90;;;1.60;;
72273;SDS011;60208;48.692;8.948;2022-08-25T15:00:54;2.23;;;1.73;;
72273;SDS011;60208;48.692;8.948;2022-08-25T15:03:27;1.60;;;1.50;;
72273;SDS011;60208;48.692;8.948;2022-08-25T15:05:55;2.10;;;1.90;;
72273;SDS011;60208;48.692;8.948;2022-08-25T15:08:21;1.77;;;1.67;;
72273;SDS011;60208;48.692;8.948;2022-08-25T15:11:05;1.88;;;1.40;;
72273;SDS011;60208;48.692;8.948;2022-08-25T15:13:30;1.73;;;1.63;;
72273;SDS011;60208;48.692;8.948;2022-08-25T15:15:55;2.23;;;1.60;;
72273;SDS011;60208;48.692;8.948;2022-08-25T15:18:21;1.90;;;1.70;;
72273;SDS011;60208;48.692;8.948;2022-08-25T15:20:46;2.38;;;1.50;;
72273;SDS011;60208;48.692;8.948;2022-08-25T15:23:12;1.98;;;1.50;;
72273;SDS011;60208;48.692;8.948;2022-08-25T15:25:43;1.73;;;1.63;;
72273;SDS011;60208;48.692;8.948;2022-08-25T15:28:09;2.17;;;1.80;;
72273;SDS011;60208;48.692;8.948;2022-08-25T15:30:35;2.27;;;1.70;;
72273;SDS011;60208;48.692;8.948;2022-08-25T15:33:00;3.03;;;1.50;;
72273;SDS011;60208;48.692;8.948;2022-08-25T15:35:26;4.20;;;1.80;;
72273;SDS011;60208;48.692;8.948;2022-08-25T15:37:51;1.80;;;1.70;;
72273;SDS011;60208;48.692;8.948;2022-08-25T15:40:17;3.57;;;1.93;;
72273;SDS011;60208;48.692;8.948;2022-08-25T15:42:42;2.63;;;1.50;;
72273;SDS011;60208;48.692;8.948;2022-08-25T15:45:08;1.63;;;1.53;;
72273;SDS011;60208;48.692;8.948;2022-08-25T15:47:35;1.60;;;1.50;;
72273;SDS011;60208;48.692;8.948;2022-08-25T15:50:08;3.45;;;1.63;;
72273;SDS011;60208;48.692;8.948;2022-08-25T15:52:41;2.38;;;1.33;;
72273;SDS011;60208;48.692;8.948;2022-08-25T15:55:07;1.52;;;1.38;;
72273;SDS011;60208;48.692;8.948;2022-08-25T15:57:33;2.03;;;1.30;;
72273;SDS011;60208;48.692;8.948;2022-08-25T15:59:59;1.92;;;1.50;;
72273;SDS011;60208;48.692;8.948;2022-08-25T16:02:24;1.50;;;1.15;;
72273;SDS011;60208;48.692;8.948;2022-08-25T16:04:50;1.92;;;1.42;;
72273;SDS011;60208;48.692;8.948;2022-08-25T16:07:17;2.58;;;1.30;;
72273;SDS011;60208;48.692;8.948;2022-08-25T16:09:43;1.30;;;1.20;;
72273;SDS011;60208;48.692;8.948;2022-08-25T16:12:08;1.53;;;1.27;;
72273;SDS011;60208;48.692;8.948;2022-08-25T16:14:33;1.40;;;1.30;;
72273;SDS011;60208;48.692;8.948;2022-08-25T16:16:59;1.98;;;1.23;;
72273;SDS011;60208;48.692;8.948;2022-08-25T16:19:26;2.10;;;1.43;;
72273;SDS011;60208;48.692;8.948;2022-08-25T16:21:52;1.33;;;1.23;;
72273;SDS011;60208;48.692;8.948;2022-08-25T16:24:17;1.90;;;1.47;;
72273;SDS011;60208;48.692;8.948;2022-08-25T16:26:43;2.03;;;1.40;;
72273;SDS011;60208;48.692;8.948;2022-08-25T16:29:11;1.63;;;1.52;;
72273;SDS011;60208;48.692;8.948;2022-08-25T16:31:38;1.65;;;1.55;;
72273;SDS011;60208;48.692;8.948;2022-08-25T16:34:04;1.65;;;1.55;;
72273;SDS011;60208;48.692;8.948;2022-08-25T16:36:29;3.53;;;1.60;;
72273;SDS011;60208;48.692;8.948;2022-08-25T16:38:55;2.20;;;1.50;;
72273;SDS011;60208;48.692;8.948;2022-08-25T16:41:25;1.70;;;1.60;;
72273;SDS011;60208;48.692;8.948;2022-08-25T16:43:57;2.08;;;1.70;;
72273;SDS011;60208;48.692;8.948;2022-08-25T16:46:23;1.50;;;1.40;;
72273;SDS011;60208;48.692;8.948;2022-08-25T16:48:48;2.90;;;1.70;;
72273;SDS011;60208;48.692;8.948;2022-08-25T16:51:18;2.30;;;1.88;;
72273;SDS011;60208;48.692;8.948;2022-08-25T16:53:45;1.60;;;1.50;;
72273;SDS011;60208;48.692;8.948;2022-08-25T16:56:31;2.13;;;1.70;;
72273;SDS011;60208;48.692;8.948;2022-08-25T16:58:58;1.58;;;1.48;;
72273;SDS011;60208;48.692;8.948;2022-08-25T17:01:25;1.98;;;1.70;;
72273;SDS011;60208;48.692;8.948;2022-08-25T17:03:51;4.00;;;1.92;;
72273;SDS011;60208;48.692;8.948;2022-08-25T17:06:18;1.70;;;1.60;;